Burdett, New York
Current Conditions -  °F | °C
As of 4:53 AM on Sunday 25 Jan 2015 (Local Time) from KELM Reporting Station
Broken Clouds Broken Clouds  
Wind Chill: 25°   Ceiling: 6000
Heat Index: 34°   Visibility: 10mi
Dew Point: 22°   Wind: 13mph
Humidity: 61%   Direction: 290°WNW
Pressure: 29.6"   Gusts: 36mph
Location:  42.42°N, 76.85°W
Report Text: KELM 250953Z AUTO 29011G31KT 10SM FEW034 SCT046 BKN060 01/M06 A2960 RMK AO2 PK WND 30031/0948 SLP033 T00111056
Loading
Personal Weather Stations






























Interactive Weather Map New forecast layout! Learn more

10-Day Weather Forecast

Advertisements
Track Severe Weather on mobile